KSTJ/STJ METAR and TAF weather

Enter ICAO airport designator
Station Type Date Time Source
KSTJ METAR 2019/06/18 16:53 UTC NOAA

KSTJ 181653Z 07006KT 9SM FEW030 26/18 A2994 RMK AO2 SLP131 T02560178


Station Type Date Time Source
KSTJ Decoded METAR 2019/06/18 16:53 UTC NOAA

ROSECRANS MEMORIAL AIRPORT, MO, United States (KSTJ) 39-46N 94-55W 247M
Jun 18, 2019 - 12:53 PM EDT / 2019.06.18 1653 UTC
Wind: from the ENE (070 degrees) at 7 MPH (6 KT):0
Visibility: 9 mile(s):0
Sky conditions: mostly clear
Temperature: 78.1 F (25.6 C)
Dew Point: 64.0 F (17.8 C)
Relative Humidity: 62%
Pressure (altimeter): 29.94 in. Hg (1013 hPa)
ob: KSTJ 181653Z 07006KT 9SM FEW030 26/18 A2994 RMK AO2 SLP131 T02560178
cycle: 17

Station Type Date Time Source
KSTJ TAF 2019/06/18 18:33 UTC NOAA

TAF KSTJ 181731Z 1818/1918 12005KT P6SM VCSH SCT035 BKN200
FM190300 VRB04KT P6SM VCTS BKN035CB
FM190800 09005KT 6SM BR BKN025
FM191100 05005KT 6SM BR OVC007
FM191600 04005KT 6SM BR OVC015

Example: see airport list